sensor_id;sensor_type;location;lat;lon;timestamp;P1;durP1;ratioP1;P2;durP2;ratioP2
505;SDS011;551;48.524;9.056;2023-02-05T00:01:17;11.23;;;6.17;;
505;SDS011;551;48.524;9.056;2023-02-05T00:03:43;14.17;;;7.27;;
505;SDS011;551;48.524;9.056;2023-02-05T00:06:08;13.37;;;5.97;;
505;SDS011;551;48.524;9.056;2023-02-05T00:08:34;17.53;;;5.90;;
505;SDS011;551;48.524;9.056;2023-02-05T00:10:59;11.97;;;5.73;;
505;SDS011;551;48.524;9.056;2023-02-05T00:13:33;14.37;;;6.20;;
505;SDS011;551;48.524;9.056;2023-02-05T00:16:06;11.77;;;5.93;;
505;SDS011;551;48.524;9.056;2023-02-05T00:18:36;15.83;;;7.00;;
505;SDS011;551;48.524;9.056;2023-02-05T00:21:02;17.17;;;6.30;;
505;SDS011;551;48.524;9.056;2023-02-05T00:23:31;15.70;;;7.33;;
505;SDS011;551;48.524;9.056;2023-02-05T00:25:58;14.37;;;6.70;;
505;SDS011;551;48.524;9.056;2023-02-05T00:28:24;20.47;;;7.63;;
505;SDS011;551;48.524;9.056;2023-02-05T00:30:49;18.03;;;7.27;;
505;SDS011;551;48.524;9.056;2023-02-05T00:33:15;23.73;;;7.93;;
505;SDS011;551;48.524;9.056;2023-02-05T00:35:41;19.73;;;7.97;;
505;SDS011;551;48.524;9.056;2023-02-05T00:38:07;16.80;;;9.33;;
505;SDS011;551;48.524;9.056;2023-02-05T00:40:33;18.23;;;8.63;;
505;SDS011;551;48.524;9.056;2023-02-05T00:42:59;8.33;;;6.67;;
505;SDS011;551;48.524;9.056;2023-02-05T00:45:25;11.47;;;7.43;;
505;SDS011;551;48.524;9.056;2023-02-05T00:47:55;16.77;;;7.70;;
505;SDS011;551;48.524;9.056;2023-02-05T00:50:21;14.80;;;7.97;;
505;SDS011;551;48.524;9.056;2023-02-05T00:52:46;14.00;;;7.97;;
505;SDS011;551;48.524;9.056;2023-02-05T00:55:12;16.90;;;9.17;;
505;SDS011;551;48.524;9.056;2023-02-05T00:57:37;15.87;;;9.47;;
505;SDS011;551;48.524;9.056;2023-02-05T01:00:03;17.30;;;9.70;;
505;SDS011;551;48.524;9.056;2023-02-05T01:02:30;16.53;;;9.07;;
505;SDS011;551;48.524;9.056;2023-02-05T01:04:56;19.83;;;9.27;;
505;SDS011;551;48.524;9.056;2023-02-05T01:07:22;17.23;;;10.17;;
505;SDS011;551;48.524;9.056;2023-02-05T01:09:47;19.17;;;9.20;;
505;SDS011;551;48.524;9.056;2023-02-05T01:12:13;18.43;;;8.40;;
505;SDS011;551;48.524;9.056;2023-02-05T01:14:39;20.43;;;9.13;;
505;SDS011;551;48.524;9.056;2023-02-05T01:17:05;17.07;;;9.37;;
505;SDS011;551;48.524;9.056;2023-02-05T01:19:32;15.83;;;8.07;;
505;SDS011;551;48.524;9.056;2023-02-05T01:21:58;13.83;;;7.63;;
505;SDS011;551;48.524;9.056;2023-02-05T01:24:24;16.97;;;9.30;;
505;SDS011;551;48.524;9.056;2023-02-05T01:26:50;14.93;;;8.80;;
505;SDS011;551;48.524;9.056;2023-02-05T01:29:17;18.00;;;11.50;;
505;SDS011;551;48.524;9.056;2023-02-05T01:31:43;21.53;;;8.20;;
505;SDS011;551;48.524;9.056;2023-02-05T01:34:08;16.10;;;9.33;;
505;SDS011;551;48.524;9.056;2023-02-05T01:36:34;20.50;;;8.20;;
505;SDS011;551;48.524;9.056;2023-02-05T01:38:59;11.13;;;7.67;;
505;SDS011;551;48.524;9.056;2023-02-05T01:41:25;21.80;;;10.30;;
505;SDS011;551;48.524;9.056;2023-02-05T01:46:49;14.27;;;9.63;;
505;SDS011;551;48.524;9.056;2023-02-05T01:51:51;20.77;;;9.83;;
505;SDS011;551;48.524;9.056;2023-02-05T01:54:19;19.87;;;9.40;;
505;SDS011;551;48.524;9.056;2023-02-05T01:56:49;17.53;;;10.07;;
505;SDS011;551;48.524;9.056;2023-02-05T01:59:19;17.70;;;8.97;;
505;SDS011;551;48.524;9.056;2023-02-05T02:01:48;18.50;;;9.97;;
505;SDS011;551;48.524;9.056;2023-02-05T02:04:15;15.70;;;9.00;;
505;SDS011;551;48.524;9.056;2023-02-05T02:06:54;14.53;;;9.73;;
505;SDS011;551;48.524;9.056;2023-02-05T02:09:19;16.37;;;8.93;;
505;SDS011;551;48.524;9.056;2023-02-05T02:11:45;18.37;;;10.13;;
505;SDS011;551;48.524;9.056;2023-02-05T02:14:11;23.20;;;9.40;;
505;SDS011;551;48.524;9.056;2023-02-05T02:16:38;23.23;;;8.73;;
505;SDS011;551;48.524;9.056;2023-02-05T02:19:06;12.90;;;8.40;;
505;SDS011;551;48.524;9.056;2023-02-05T02:24:53;16.00;;;9.30;;
505;SDS011;551;48.524;9.056;2023-02-05T02:27:35;16.10;;;9.67;;
505;SDS011;551;48.524;9.056;2023-02-05T02:30:08;13.23;;;8.73;;
505;SDS011;551;48.524;9.056;2023-02-05T02:35:26;18.40;;;9.17;;
505;SDS011;551;48.524;9.056;2023-02-05T02:38:21;15.90;;;9.47;;
505;SDS011;551;48.524;9.056;2023-02-05T02:41:05;16.80;;;8.53;;
505;SDS011;551;48.524;9.056;2023-02-05T02:43:39;21.40;;;8.97;;
505;SDS011;551;48.524;9.056;2023-02-05T02:46:16;15.03;;;8.60;;
505;SDS011;551;48.524;9.056;2023-02-05T02:48:51;14.97;;;8.40;;
505;SDS011;551;48.524;9.056;2023-02-05T02:51:20;10.83;;;8.00;;
505;SDS011;551;48.524;9.056;2023-02-05T02:53:50;19.50;;;7.83;;
505;SDS011;551;48.524;9.056;2023-02-05T02:56:20;13.60;;;8.47;;
505;SDS011;551;48.524;9.056;2023-02-05T02:58:51;11.30;;;7.70;;
505;SDS011;551;48.524;9.056;2023-02-05T03:01:21;16.17;;;8.37;;
505;SDS011;551;48.524;9.056;2023-02-05T03:03:50;19.80;;;8.70;;
505;SDS011;551;48.524;9.056;2023-02-05T03:06:21;11.40;;;7.10;;
505;SDS011;551;48.524;9.056;2023-02-05T03:08:53;17.20;;;8.00;;
505;SDS011;551;48.524;9.056;2023-02-05T03:11:29;15.10;;;7.87;;
505;SDS011;551;48.524;9.056;2023-02-05T03:13:55;13.77;;;8.10;;
505;SDS011;551;48.524;9.056;2023-02-05T03:16:22;17.77;;;9.40;;
505;SDS011;551;48.524;9.056;2023-02-05T03:18:49;12.27;;;8.30;;
505;SDS011;551;48.524;9.056;2023-02-05T03:21:20;11.23;;;7.53;;
505;SDS011;551;48.524;9.056;2023-02-05T03:23:53;16.57;;;8.63;;
505;SDS011;551;48.524;9.056;2023-02-05T03:26:26;14.90;;;9.00;;
505;SDS011;551;48.524;9.056;2023-02-05T03:28:54;18.27;;;8.03;;
505;SDS011;551;48.524;9.056;2023-02-05T03:31:22;13.23;;;8.20;;
505;SDS011;551;48.524;9.056;2023-02-05T03:36:48;17.20;;;8.63;;
505;SDS011;551;48.524;9.056;2023-02-05T03:39:50;18.27;;;9.03;;
505;SDS011;551;48.524;9.056;2023-02-05T03:45:22;20.13;;;8.23;;
505;SDS011;551;48.524;9.056;2023-02-05T03:48:01;11.23;;;7.93;;
505;SDS011;551;48.524;9.056;2023-02-05T03:50:39;22.90;;;8.40;;
505;SDS011;551;48.524;9.056;2023-02-05T03:53:54;15.07;;;8.50;;
505;SDS011;551;48.524;9.056;2023-02-05T03:56:07;16.17;;;8.13;;
505;SDS011;551;48.524;9.056;2023-02-05T03:58:50;12.73;;;7.10;;
505;SDS011;551;48.524;9.056;2023-02-05T04:01:18;13.53;;;7.97;;
505;SDS011;551;48.524;9.056;2023-02-05T04:03:45;15.37;;;7.50;;
505;SDS011;551;48.524;9.056;2023-02-05T04:06:11;17.43;;;8.00;;
505;SDS011;551;48.524;9.056;2023-02-05T04:08:36;13.43;;;8.30;;
505;SDS011;551;48.524;9.056;2023-02-05T04:11:02;17.70;;;8.40;;
505;SDS011;551;48.524;9.056;2023-02-05T04:13:28;16.13;;;8.03;;
505;SDS011;551;48.524;9.056;2023-02-05T04:15:53;14.93;;;8.63;;
505;SDS011;551;48.524;9.056;2023-02-05T04:18:19;17.73;;;8.80;;
505;SDS011;551;48.524;9.056;2023-02-05T04:20:44;14.73;;;8.30;;
505;SDS011;551;48.524;9.056;2023-02-05T04:23:10;14.80;;;8.07;;
505;SDS011;551;48.524;9.056;2023-02-05T04:25:36;17.87;;;9.33;;
505;SDS011;551;48.524;9.056;2023-02-05T04:28:03;13.10;;;8.77;;
505;SDS011;551;48.524;9.056;2023-02-05T04:30:29;19.33;;;8.03;;
505;SDS011;551;48.524;9.056;2023-02-05T04:32:55;18.90;;;9.97;;
505;SDS011;551;48.524;9.056;2023-02-05T04:35:21;11.50;;;7.63;;
505;SDS011;551;48.524;9.056;2023-02-05T04:37:46;15.23;;;9.40;;
505;SDS011;551;48.524;9.056;2023-02-05T04:40:12;15.07;;;8.57;;
505;SDS011;551;48.524;9.056;2023-02-05T04:42:37;18.17;;;8.60;;
505;SDS011;551;48.524;9.056;2023-02-05T04:45:03;19.57;;;9.53;;
505;SDS011;551;48.524;9.056;2023-02-05T04:47:30;24.83;;;10.13;;
505;SDS011;551;48.524;9.056;2023-02-05T04:49:56;14.80;;;8.70;;
505;SDS011;551;48.524;9.056;2023-02-05T04:52:22;12.47;;;7.93;;
505;SDS011;551;48.524;9.056;2023-02-05T04:54:47;13.43;;;8.57;;
505;SDS011;551;48.524;9.056;2023-02-05T04:57:13;16.70;;;7.77;;
505;SDS011;551;48.524;9.056;2023-02-05T04:59:39;13.60;;;8.57;;
505;SDS011;551;48.524;9.056;2023-02-05T05:02:04;15.70;;;8.80;;
505;SDS011;551;48.524;9.056;2023-02-05T05:04:30;20.63;;;9.40;;
505;SDS011;551;48.524;9.056;2023-02-05T05:06:56;19.67;;;8.60;;
505;SDS011;551;48.524;9.056;2023-02-05T05:09:21;16.40;;;8.60;;
505;SDS011;551;48.524;9.056;2023-02-05T05:11:49;11.40;;;7.60;;
505;SDS011;551;48.524;9.056;2023-02-05T05:14:15;11.77;;;7.90;;
505;SDS011;551;48.524;9.056;2023-02-05T05:16:41;11.07;;;7.60;;
505;SDS011;551;48.524;9.056;2023-02-05T05:19:06;16.07;;;9.00;;
505;SDS011;551;48.524;9.056;2023-02-05T05:21:32;15.57;;;7.80;;
505;SDS011;551;48.524;9.056;2023-02-05T05:23:57;13.60;;;8.47;;
505;SDS011;551;48.524;9.056;2023-02-05T05:26:23;11.13;;;7.90;;
505;SDS011;551;48.524;9.056;2023-02-05T05:28:51;23.63;;;9.23;;
505;SDS011;551;48.524;9.056;2023-02-05T05:31:20;19.53;;;9.63;;
505;SDS011;551;48.524;9.056;2023-02-05T05:33:47;21.63;;;8.70;;
505;SDS011;551;48.524;9.056;2023-02-05T05:36:13;14.23;;;8.50;;
505;SDS011;551;48.524;9.056;2023-02-05T05:38:38;19.53;;;8.93;;
505;SDS011;551;48.524;9.056;2023-02-05T05:41:04;17.77;;;8.67;;
505;SDS011;551;48.524;9.056;2023-02-05T05:43:48;16.63;;;8.97;;
505;SDS011;551;48.524;9.056;2023-02-05T05:46:16;15.60;;;8.30;;
505;SDS011;551;48.524;9.056;2023-02-05T05:48:47;14.10;;;9.67;;
505;SDS011;551;48.524;9.056;2023-02-05T05:51:20;17.90;;;10.30;;
505;SDS011;551;48.524;9.056;2023-02-05T05:53:46;15.17;;;9.13;;
505;SDS011;551;48.524;9.056;2023-02-05T05:56:12;11.83;;;8.10;;
505;SDS011;551;48.524;9.056;2023-02-05T05:58:38;15.70;;;9.37;;
505;SDS011;551;48.524;9.056;2023-02-05T06:01:04;20.43;;;10.97;;
505;SDS011;551;48.524;9.056;2023-02-05T06:03:30;14.07;;;8.63;;
505;SDS011;551;48.524;9.056;2023-02-05T06:05:58;18.20;;;9.63;;
505;SDS011;551;48.524;9.056;2023-02-05T06:08:29;14.43;;;8.37;;
505;SDS011;551;48.524;9.056;2023-02-05T06:10:55;20.57;;;9.80;;
505;SDS011;551;48.524;9.056;2023-02-05T06:13:20;14.40;;;8.23;;
505;SDS011;551;48.524;9.056;2023-02-05T06:15:46;15.27;;;9.10;;
505;SDS011;551;48.524;9.056;2023-02-05T06:18:13;14.70;;;9.20;;
505;SDS011;551;48.524;9.056;2023-02-05T06:20:39;13.70;;;9.53;;
505;SDS011;551;48.524;9.056;2023-02-05T06:23:04;15.57;;;9.50;;
505;SDS011;551;48.524;9.056;2023-02-05T06:25:30;11.97;;;9.17;;
505;SDS011;551;48.524;9.056;2023-02-05T06:27:55;20.33;;;9.40;;
505;SDS011;551;48.524;9.056;2023-02-05T06:30:21;13.73;;;9.50;;
505;SDS011;551;48.524;9.056;2023-02-05T06:32:46;14.53;;;8.53;;
505;SDS011;551;48.524;9.056;2023-02-05T06:35:12;16.93;;;9.40;;
505;SDS011;551;48.524;9.056;2023-02-05T06:37:37;17.07;;;9.97;;
505;SDS011;551;48.524;9.056;2023-02-05T06:40:03;17.00;;;10.40;;
505;SDS011;551;48.524;9.056;2023-02-05T06:42:29;14.30;;;9.37;;
505;SDS011;551;48.524;9.056;2023-02-05T06:44:55;16.33;;;8.60;;
505;SDS011;551;48.524;9.056;2023-02-05T06:47:20;12.80;;;8.63;;
505;SDS011;551;48.524;9.056;2023-02-05T06:49:46;13.70;;;9.00;;
505;SDS011;551;48.524;9.056;2023-02-05T06:52:11;15.53;;;8.83;;
505;SDS011;551;48.524;9.056;2023-02-05T06:54:37;12.90;;;8.80;;
505;SDS011;551;48.524;9.056;2023-02-05T06:57:03;16.40;;;10.20;;
505;SDS011;551;48.524;9.056;2023-02-05T06:59:29;20.07;;;9.83;;
505;SDS011;551;48.524;9.056;2023-02-05T07:01:54;12.70;;;9.07;;
505;SDS011;551;48.524;9.056;2023-02-05T07:04:20;10.40;;;8.73;;
505;SDS011;551;48.524;9.056;2023-02-05T07:06:45;14.10;;;8.97;;
505;SDS011;551;48.524;9.056;2023-02-05T07:09:11;12.63;;;8.53;;
505;SDS011;551;48.524;9.056;2023-02-05T07:11:36;16.00;;;9.60;;
505;SDS011;551;48.524;9.056;2023-02-05T07:14:02;15.70;;;8.67;;
505;SDS011;551;48.524;9.056;2023-02-05T07:16:28;15.80;;;9.27;;
505;SDS011;551;48.524;9.056;2023-02-05T07:18:54;18.13;;;9.63;;
505;SDS011;551;48.524;9.056;2023-02-05T07:21:21;19.23;;;9.07;;
505;SDS011;551;48.524;9.056;2023-02-05T07:23:46;15.03;;;10.20;;
505;SDS011;551;48.524;9.056;2023-02-05T07:26:13;13.17;;;8.70;;
505;SDS011;551;48.524;9.056;2023-02-05T07:28:40;16.20;;;10.10;;
505;SDS011;551;48.524;9.056;2023-02-05T07:31:07;14.97;;;10.10;;
505;SDS011;551;48.524;9.056;2023-02-05T07:33:35;15.73;;;10.07;;
505;SDS011;551;48.524;9.056;2023-02-05T07:36:02;15.50;;;8.10;;
505;SDS011;551;48.524;9.056;2023-02-05T07:38:31;14.57;;;9.77;;
505;SDS011;551;48.524;9.056;2023-02-05T07:40:57;16.87;;;9.13;;
505;SDS011;551;48.524;9.056;2023-02-05T07:43:23;22.13;;;9.97;;
505;SDS011;551;48.524;9.056;2023-02-05T07:45:54;18.33;;;10.17;;
505;SDS011;551;48.524;9.056;2023-02-05T07:48:21;15.33;;;8.30;;
505;SDS011;551;48.524;9.056;2023-02-05T07:50:46;18.00;;;10.43;;
505;SDS011;551;48.524;9.056;2023-02-05T07:53:12;18.03;;;10.50;;
505;SDS011;551;48.524;9.056;2023-02-05T07:55:37;24.27;;;10.43;;
505;SDS011;551;48.524;9.056;2023-02-05T07:58:03;14.60;;;8.67;;
505;SDS011;551;48.524;9.056;2023-02-05T08:00:28;16.37;;;9.30;;
505;SDS011;551;48.524;9.056;2023-02-05T08:02:55;13.43;;;9.17;;
505;SDS011;551;48.524;9.056;2023-02-05T08:05:20;18.40;;;8.63;;
505;SDS011;551;48.524;9.056;2023-02-05T08:07:46;15.07;;;8.60;;
505;SDS011;551;48.524;9.056;2023-02-05T08:10:12;18.73;;;9.20;;
505;SDS011;551;48.524;9.056;2023-02-05T08:12:38;13.47;;;8.80;;
505;SDS011;551;48.524;9.056;2023-02-05T08:15:04;16.80;;;9.13;;
505;SDS011;551;48.524;9.056;2023-02-05T08:17:30;13.97;;;9.30;;
505;SDS011;551;48.524;9.056;2023-02-05T08:19:56;11.37;;;8.90;;
505;SDS011;551;48.524;9.056;2023-02-05T08:22:22;15.53;;;8.73;;
505;SDS011;551;48.524;9.056;2023-02-05T08:24:47;16.23;;;8.47;;
505;SDS011;551;48.524;9.056;2023-02-05T08:27:13;11.77;;;8.37;;
505;SDS011;551;48.524;9.056;2023-02-05T08:29:38;17.13;;;9.50;;
505;SDS011;551;48.524;9.056;2023-02-05T08:32:04;21.30;;;8.87;;
505;SDS011;551;48.524;9.056;2023-02-05T08:34:29;17.07;;;8.97;;
505;SDS011;551;48.524;9.056;2023-02-05T08:36:55;17.40;;;8.60;;
505;SDS011;551;48.524;9.056;2023-02-05T08:39:21;15.67;;;8.13;;
505;SDS011;551;48.524;9.056;2023-02-05T08:41:47;15.90;;;8.20;;
505;SDS011;551;48.524;9.056;2023-02-05T08:44:13;14.47;;;8.63;;
505;SDS011;551;48.524;9.056;2023-02-05T08:46:38;16.03;;;10.03;;
505;SDS011;551;48.524;9.056;2023-02-05T08:49:04;18.63;;;9.90;;
505;SDS011;551;48.524;9.056;2023-02-05T08:51:30;17.53;;;9.23;;
505;SDS011;551;48.524;9.056;2023-02-05T08:53:57;13.40;;;8.80;;
505;SDS011;551;48.524;9.056;2023-02-05T08:56:23;16.73;;;8.83;;
505;SDS011;551;48.524;9.056;2023-02-05T08:58:49;15.03;;;8.83;;
505;SDS011;551;48.524;9.056;2023-02-05T09:01:15;13.73;;;8.97;;
505;SDS011;551;48.524;9.056;2023-02-05T09:03:42;15.97;;;9.30;;
505;SDS011;551;48.524;9.056;2023-02-05T09:06:09;16.20;;;8.43;;
505;SDS011;551;48.524;9.056;2023-02-05T09:08:36;14.13;;;8.13;;
505;SDS011;551;48.524;9.056;2023-02-05T09:11:02;17.63;;;8.73;;
505;SDS011;551;48.524;9.056;2023-02-05T09:13:28;17.90;;;8.50;;
505;SDS011;551;48.524;9.056;2023-02-05T09:15:54;15.20;;;8.77;;
505;SDS011;551;48.524;9.056;2023-02-05T09:18:19;13.03;;;8.50;;
505;SDS011;551;48.524;9.056;2023-02-05T09:20:46;15.13;;;8.60;;
505;SDS011;551;48.524;9.056;2023-02-05T09:23:13;20.37;;;8.30;;
505;SDS011;551;48.524;9.056;2023-02-05T09:25:40;13.30;;;8.27;;
505;SDS011;551;48.524;9.056;2023-02-05T09:28:06;14.90;;;8.90;;
505;SDS011;551;48.524;9.056;2023-02-05T09:30:37;17.50;;;8.27;;
505;SDS011;551;48.524;9.056;2023-02-05T09:33:04;16.87;;;9.10;;
505;SDS011;551;48.524;9.056;2023-02-05T09:35:30;12.50;;;8.40;;
505;SDS011;551;48.524;9.056;2023-02-05T09:37:57;13.70;;;8.83;;
505;SDS011;551;48.524;9.056;2023-02-05T09:40:25;10.80;;;7.57;;
505;SDS011;551;48.524;9.056;2023-02-05T09:48:28;10.83;;;6.97;;
505;SDS011;551;48.524;9.056;2023-02-05T09:51:00;13.97;;;8.63;;
505;SDS011;551;48.524;9.056;2023-02-05T09:53:27;13.43;;;7.00;;
505;SDS011;551;48.524;9.056;2023-02-05T09:55:59;13.07;;;7.70;;
505;SDS011;551;48.524;9.056;2023-02-05T09:58:27;11.63;;;7.70;;
505;SDS011;551;48.524;9.056;2023-02-05T10:01:02;11.23;;;7.27;;
505;SDS011;551;48.524;9.056;2023-02-05T10:03:41;15.03;;;8.20;;
505;SDS011;551;48.524;9.056;2023-02-05T10:06:22;9.40;;;6.60;;
505;SDS011;551;48.524;9.056;2023-02-05T10:17:28;11.73;;;7.40;;
505;SDS011;551;48.524;9.056;2023-02-05T10:20:19;16.90;;;8.67;;
505;SDS011;551;48.524;9.056;2023-02-05T10:23:01;13.43;;;7.40;;
505;SDS011;551;48.524;9.056;2023-02-05T10:25:50;10.70;;;7.10;;
505;SDS011;551;48.524;9.056;2023-02-05T10:28:27;16.30;;;8.87;;
505;SDS011;551;48.524;9.056;2023-02-05T10:34:15;16.53;;;7.10;;
505;SDS011;551;48.524;9.056;2023-02-05T10:36:41;12.10;;;7.67;;
505;SDS011;551;48.524;9.056;2023-02-05T10:39:12;17.13;;;8.80;;
505;SDS011;551;48.524;9.056;2023-02-05T10:41:48;16.10;;;8.63;;
505;SDS011;551;48.524;9.056;2023-02-05T10:46:55;20.30;;;8.27;;
505;SDS011;551;48.524;9.056;2023-02-05T10:49:31;16.90;;;8.80;;
505;SDS011;551;48.524;9.056;2023-02-05T10:52:21;21.83;;;9.33;;
505;SDS011;551;48.524;9.056;2023-02-05T10:54:46;15.77;;;7.53;;
505;SDS011;551;48.524;9.056;2023-02-05T10:57:13;14.37;;;8.53;;
505;SDS011;551;48.524;9.056;2023-02-05T10:59:43;15.50;;;6.50;;
505;SDS011;551;48.524;9.056;2023-02-05T11:02:12;21.60;;;7.80;;
505;SDS011;551;48.524;9.056;2023-02-05T11:04:43;11.63;;;7.97;;
505;SDS011;551;48.524;9.056;2023-02-05T11:07:11;13.90;;;7.83;;
505;SDS011;551;48.524;9.056;2023-02-05T11:09:48;23.37;;;8.40;;
505;SDS011;551;48.524;9.056;2023-02-05T11:12:29;13.43;;;8.00;;
505;SDS011;551;48.524;9.056;2023-02-05T11:14:57;13.03;;;7.27;;
505;SDS011;551;48.524;9.056;2023-02-05T11:17:30;15.83;;;8.53;;
505;SDS011;551;48.524;9.056;2023-02-05T11:20:00;13.50;;;8.30;;
505;SDS011;551;48.524;9.056;2023-02-05T11:22:46;18.07;;;11.07;;
505;SDS011;551;48.524;9.056;2023-02-05T11:25:16;14.00;;;8.43;;
505;SDS011;551;48.524;9.056;2023-02-05T11:27:48;16.50;;;8.47;;
505;SDS011;551;48.524;9.056;2023-02-05T11:33:05;18.17;;;7.90;;
505;SDS011;551;48.524;9.056;2023-02-05T11:35:58;10.73;;;7.03;;
505;SDS011;551;48.524;9.056;2023-02-05T11:40:59;11.23;;;6.33;;
505;SDS011;551;48.524;9.056;2023-02-05T11:46:15;14.20;;;5.60;;
505;SDS011;551;48.524;9.056;2023-02-05T11:48:45;14.83;;;6.20;;
505;SDS011;551;48.524;9.056;2023-02-05T11:54:00;14.83;;;6.60;;
505;SDS011;551;48.524;9.056;2023-02-05T11:56:29;6.07;;;5.20;;
505;SDS011;551;48.524;9.056;2023-02-05T11:58:59;6.97;;;4.87;;
505;SDS011;551;48.524;9.056;2023-02-05T12:01:26;12.50;;;5.90;;
505;SDS011;551;48.524;9.056;2023-02-05T12:04:17;14.53;;;6.20;;
505;SDS011;551;48.524;9.056;2023-02-05T12:06:49;11.60;;;5.10;;
505;SDS011;551;48.524;9.056;2023-02-05T12:09:19;13.87;;;7.80;;
505;SDS011;551;48.524;9.056;2023-02-05T12:14:36;9.47;;;5.43;;
505;SDS011;551;48.524;9.056;2023-02-05T12:19:48;11.63;;;6.17;;
505;SDS011;551;48.524;9.056;2023-02-05T12:27:48;9.00;;;5.30;;
505;SDS011;551;48.524;9.056;2023-02-05T12:30:40;10.50;;;5.87;;
505;SDS011;551;48.524;9.056;2023-02-05T12:33:40;13.20;;;5.20;;
505;SDS011;551;48.524;9.056;2023-02-05T12:36:33;17.00;;;6.00;;
505;SDS011;551;48.524;9.056;2023-02-05T12:44:58;10.90;;;6.70;;
505;SDS011;551;48.524;9.056;2023-02-05T12:50:53;13.50;;;5.63;;
505;SDS011;551;48.524;9.056;2023-02-05T12:56:24;8.70;;;5.33;;
505;SDS011;551;48.524;9.056;2023-02-05T12:59:03;8.37;;;5.60;;
505;SDS011;551;48.524;9.056;2023-02-05T13:04:24;7.97;;;4.57;;
505;SDS011;551;48.524;9.056;2023-02-05T13:06:59;10.20;;;6.30;;
505;SDS011;551;48.524;9.056;2023-02-05T13:09:42;10.73;;;6.77;;
505;SDS011;551;48.524;9.056;2023-02-05T13:12:13;7.37;;;4.93;;
505;SDS011;551;48.524;9.056;2023-02-05T13:14:43;12.20;;;5.10;;
505;SDS011;551;48.524;9.056;2023-02-05T13:17:27;8.33;;;4.77;;
505;SDS011;551;48.524;9.056;2023-02-05T13:19:56;8.20;;;4.90;;
505;SDS011;551;48.524;9.056;2023-02-05T13:25:16;8.00;;;4.37;;
505;SDS011;551;48.524;9.056;2023-02-05T13:31:03;8.10;;;4.80;;
505;SDS011;551;48.524;9.056;2023-02-05T13:33:50;10.00;;;4.87;;
505;SDS011;551;48.524;9.056;2023-02-05T13:42:07;7.87;;;5.30;;
505;SDS011;551;48.524;9.056;2023-02-05T13:53:24;6.90;;;4.73;;
505;SDS011;551;48.524;9.056;2023-02-05T13:56:15;9.03;;;5.63;;
505;SDS011;551;48.524;9.056;2023-02-05T13:59:26;12.23;;;5.87;;
505;SDS011;551;48.524;9.056;2023-02-05T14:01:52;6.47;;;5.80;;
505;SDS011;551;48.524;9.056;2023-02-05T14:07:02;8.87;;;5.70;;
505;SDS011;551;48.524;9.056;2023-02-05T14:09:34;9.00;;;4.90;;
505;SDS011;551;48.524;9.056;2023-02-05T14:12:05;9.30;;;6.70;;
505;SDS011;551;48.524;9.056;2023-02-05T14:14:34;15.23;;;4.97;;
505;SDS011;551;48.524;9.056;2023-02-05T14:17:02;8.80;;;5.80;;
505;SDS011;551;48.524;9.056;2023-02-05T14:19:53;6.10;;;5.03;;
505;SDS011;551;48.524;9.056;2023-02-05T14:22:40;14.50;;;6.90;;
505;SDS011;551;48.524;9.056;2023-02-05T14:28:02;13.43;;;6.60;;
505;SDS011;551;48.524;9.056;2023-02-05T14:33:33;6.83;;;6.13;;
505;SDS011;551;48.524;9.056;2023-02-05T14:41:20;12.70;;;6.07;;
505;SDS011;551;48.524;9.056;2023-02-05T14:46:43;8.60;;;6.13;;
505;SDS011;551;48.524;9.056;2023-02-05T14:49:25;6.53;;;5.00;;
505;SDS011;551;48.524;9.056;2023-02-05T14:51:57;8.17;;;5.77;;
505;SDS011;551;48.524;9.056;2023-02-05T14:54:32;3.73;;;3.43;;
505;SDS011;551;48.524;9.056;2023-02-05T14:59:52;8.73;;;5.37;;
505;SDS011;551;48.524;9.056;2023-02-05T15:02:51;6.60;;;4.07;;
505;SDS011;551;48.524;9.056;2023-02-05T15:08:14;12.10;;;4.07;;
505;SDS011;551;48.524;9.056;2023-02-05T15:10:52;4.57;;;3.27;;
505;SDS011;551;48.524;9.056;2023-02-05T15:13:27;4.97;;;3.30;;
505;SDS011;551;48.524;9.056;2023-02-05T15:18:43;5.93;;;3.30;;
505;SDS011;551;48.524;9.056;2023-02-05T15:21:37;5.70;;;3.83;;
505;SDS011;551;48.524;9.056;2023-02-05T15:24:21;5.20;;;3.40;;
505;SDS011;551;48.524;9.056;2023-02-05T15:26:51;6.93;;;4.60;;
505;SDS011;551;48.524;9.056;2023-02-05T15:29:24;4.80;;;3.60;;
505;SDS011;551;48.524;9.056;2023-02-05T15:32:06;4.77;;;3.47;;
505;SDS011;551;48.524;9.056;2023-02-05T15:34:57;4.97;;;3.60;;
505;SDS011;551;48.524;9.056;2023-02-05T15:37:30;7.67;;;4.07;;
505;SDS011;551;48.524;9.056;2023-02-05T15:42:54;7.30;;;3.77;;
505;SDS011;551;48.524;9.056;2023-02-05T15:45:23;3.83;;;3.07;;
505;SDS011;551;48.524;9.056;2023-02-05T15:50:41;7.50;;;3.07;;
505;SDS011;551;48.524;9.056;2023-02-05T15:53:29;4.33;;;3.60;;
505;SDS011;551;48.524;9.056;2023-02-05T15:56:07;4.33;;;3.40;;
505;SDS011;551;48.524;9.056;2023-02-05T15:58:46;5.53;;;3.97;;
505;SDS011;551;48.524;9.056;2023-02-05T16:01:47;7.03;;;4.10;;
505;SDS011;551;48.524;9.056;2023-02-05T16:04:19;6.37;;;3.53;;
505;SDS011;551;48.524;9.056;2023-02-05T16:06:50;3.40;;;2.73;;
505;SDS011;551;48.524;9.056;2023-02-05T16:09:20;3.00;;;2.70;;
505;SDS011;551;48.524;9.056;2023-02-05T16:11:48;3.47;;;3.13;;
505;SDS011;551;48.524;9.056;2023-02-05T16:14:19;4.00;;;3.10;;
505;SDS011;551;48.524;9.056;2023-02-05T16:19:31;4.40;;;3.63;;
505;SDS011;551;48.524;9.056;2023-02-05T16:22:02;4.40;;;4.00;;
505;SDS011;551;48.524;9.056;2023-02-05T16:24:42;4.20;;;3.80;;
505;SDS011;551;48.524;9.056;2023-02-05T16:27:14;7.47;;;4.43;;
505;SDS011;551;48.524;9.056;2023-02-05T16:29:56;4.17;;;3.70;;
505;SDS011;551;48.524;9.056;2023-02-05T16:32:30;5.33;;;3.63;;
505;SDS011;551;48.524;9.056;2023-02-05T16:35:04;3.50;;;2.93;;
505;SDS011;551;48.524;9.056;2023-02-05T16:37:32;3.67;;;3.10;;
505;SDS011;551;48.524;9.056;2023-02-05T16:39:59;4.70;;;3.50;;
505;SDS011;551;48.524;9.056;2023-02-05T16:42:35;4.50;;;3.00;;
505;SDS011;551;48.524;9.056;2023-02-05T16:45:21;4.97;;;3.40;;
505;SDS011;551;48.524;9.056;2023-02-05T16:50:45;3.87;;;3.53;;
505;SDS011;551;48.524;9.056;2023-02-05T16:53:21;4.17;;;3.03;;
505;SDS011;551;48.524;9.056;2023-02-05T16:55:47;3.80;;;3.50;;
505;SDS011;551;48.524;9.056;2023-02-05T16:58:18;5.27;;;4.00;;
505;SDS011;551;48.524;9.056;2023-02-05T17:00:54;6.77;;;3.97;;
505;SDS011;551;48.524;9.056;2023-02-05T17:03:24;6.13;;;3.87;;
505;SDS011;551;48.524;9.056;2023-02-05T17:05:59;9.00;;;4.70;;
505;SDS011;551;48.524;9.056;2023-02-05T17:08:30;5.67;;;3.80;;
505;SDS011;551;48.524;9.056;2023-02-05T17:10:59;6.00;;;4.00;;
505;SDS011;551;48.524;9.056;2023-02-05T17:13:35;4.97;;;4.50;;
505;SDS011;551;48.524;9.056;2023-02-05T17:21:27;5.80;;;4.57;;
505;SDS011;551;48.524;9.056;2023-02-05T17:23:54;6.20;;;5.00;;
505;SDS011;551;48.524;9.056;2023-02-05T17:26:22;7.30;;;5.17;;
505;SDS011;551;48.524;9.056;2023-02-05T17:28:51;7.37;;;5.20;;
505;SDS011;551;48.524;9.056;2023-02-05T17:31:21;7.23;;;5.80;;
505;SDS011;551;48.524;9.056;2023-02-05T17:33:50;6.33;;;5.33;;
505;SDS011;551;48.524;9.056;2023-02-05T17:36:17;8.70;;;6.90;;
505;SDS011;551;48.524;9.056;2023-02-05T17:38:44;12.20;;;7.43;;
505;SDS011;551;48.524;9.056;2023-02-05T17:41:16;13.27;;;7.87;;
505;SDS011;551;48.524;9.056;2023-02-05T17:44:05;8.10;;;5.80;;
505;SDS011;551;48.524;9.056;2023-02-05T17:46:31;7.00;;;5.23;;
505;SDS011;551;48.524;9.056;2023-02-05T17:48:56;6.00;;;5.23;;
505;SDS011;551;48.524;9.056;2023-02-05T17:51:22;7.13;;;5.40;;
505;SDS011;551;48.524;9.056;2023-02-05T17:53:48;6.33;;;5.00;;
505;SDS011;551;48.524;9.056;2023-02-05T17:56:14;6.27;;;4.67;;
505;SDS011;551;48.524;9.056;2023-02-05T17:58:43;8.60;;;6.40;;
505;SDS011;551;48.524;9.056;2023-02-05T18:01:08;8.00;;;6.50;;
505;SDS011;551;48.524;9.056;2023-02-05T18:03:35;8.33;;;6.50;;
505;SDS011;551;48.524;9.056;2023-02-05T18:06:01;12.23;;;7.00;;
505;SDS011;551;48.524;9.056;2023-02-05T18:08:27;7.90;;;6.33;;